Terminal Aerodrome Forecast
Issued by NWS

Home | Current Version | Previous Version | Text Only | Print | Product List | Glossary On
Versions: 1 2 3 4 5 6 7 8 9 10 11 12 13 14 15 16 17 18
000
FTUS46 KSGX 202300
TAFPSP
TAF
KPSP 202325Z 2100/2124 33012KT P6SM SCT090 BKN150
     FM210600 VRB05KT P6SM SCT100 SCT150
     FM211800 10008KT P6SM VCTS SCT090CB BKN150 PROB30 2118/2124
      -TSRA BKN080CB=

USA.gov is the U.S. government's official web portal to all federal, state and local government web resources and services.